createdAt,value
2023-05-10T00:01:25.385Z,88.20
2023-05-10T00:04:27.395Z,88.80
2023-05-10T00:07:29.719Z,88.20
2023-05-10T00:10:32.045Z,88.20
2023-05-10T00:13:34.059Z,88.30
2023-05-10T00:16:36.264Z,88.00
2023-05-10T00:19:38.459Z,87.50
2023-05-10T00:22:40.568Z,87.40
2023-05-10T00:25:42.938Z,87.80
2023-05-10T00:28:45.014Z,87.80
2023-05-10T00:31:47.219Z,88.00
2023-05-10T00:34:49.669Z,88.00
2023-05-10T00:37:51.833Z,88.20
2023-05-10T00:40:53.964Z,88.30
2023-05-10T00:44:03.454Z,88.30
2023-05-10T00:47:05.678Z,88.00
2023-05-10T00:50:08.544Z,88.30
2023-05-10T00:53:10.920Z,88.20
2023-05-10T00:56:13.942Z,88.20
2023-05-10T00:59:19.901Z,88.10
2023-05-10T01:02:22.739Z,88.70
2023-05-10T01:05:26.133Z,88.30
2023-05-10T01:08:29.112Z,88.80
2023-05-10T01:11:31.905Z,87.90
2023-05-10T01:14:35.342Z,88.60
2023-05-10T01:17:40.340Z,88.30
2023-05-10T01:20:50.048Z,88.10
2023-05-10T01:24:10.902Z,88.30
2023-05-10T01:27:16.112Z,88.60
2023-05-10T01:30:27.306Z,88.20
2023-05-10T01:33:48.080Z,88.20
2023-05-10T01:37:10.315Z,87.70
2023-05-10T01:40:27.185Z,88.00
2023-05-10T01:43:36.210Z,88.10
2023-05-10T01:46:41.277Z,88.30
2023-05-10T01:49:50.566Z,88.50
2023-05-10T01:52:56.394Z,88.90
2023-05-10T01:56:00.362Z,88.90
2023-05-10T01:59:09.974Z,88.60
2023-05-10T02:02:14.626Z,88.40
2023-05-10T02:05:18.787Z,88.20
2023-05-10T02:08:23.693Z,88.10
2023-05-10T02:11:27.082Z,88.30
2023-05-10T02:14:33.625Z,88.10
2023-05-10T02:17:38.562Z,87.70
2023-05-10T02:20:41.518Z,88.30
2023-05-10T02:23:44.831Z,88.20
2023-05-10T02:26:49.221Z,87.90
2023-05-10T02:29:53.070Z,88.40
2023-05-10T02:32:55.765Z,88.10
2023-05-10T02:36:00.319Z,88.70
2023-05-10T02:39:03.428Z,89.10
2023-05-10T02:42:07.448Z,89.30
2023-05-10T02:45:14.540Z,88.20
2023-05-10T02:48:18.473Z,88.40
2023-05-10T02:51:25.538Z,88.50
2023-05-10T02:54:32.997Z,88.10
2023-05-10T02:57:39.312Z,88.30
2023-05-10T03:00:41.335Z,88.50
2023-05-10T03:03:43.590Z,88.10
2023-05-10T03:06:46.367Z,88.10
2023-05-10T03:09:52.146Z,88.10
2023-05-10T03:13:09.321Z,88.20
2023-05-10T03:16:16.818Z,88.60
2023-05-10T03:19:33.117Z,88.60
2023-05-10T03:22:42.318Z,88.60
2023-05-10T03:25:45.435Z,88.00
2023-05-10T03:28:49.615Z,88.40
2023-05-10T03:31:51.742Z,88.60
2023-05-10T03:34:53.955Z,88.20
2023-05-10T03:37:55.872Z,88.00
2023-05-10T03:40:57.915Z,88.10
2023-05-10T03:43:59.884Z,88.40
2023-05-10T03:47:01.914Z,88.00
2023-05-10T03:50:04.718Z,88.30
2023-05-10T03:53:06.830Z,88.20
2023-05-10T03:56:08.812Z,88.40
2023-05-10T03:59:11.740Z,88.50
2023-05-10T04:02:14.191Z,88.60
2023-05-10T04:05:16.279Z,88.30
2023-05-10T04:08:20.550Z,88.60
2023-05-10T04:11:22.636Z,88.30
2023-05-10T04:14:24.671Z,88.60
2023-05-10T04:17:26.903Z,88.40
2023-05-10T04:20:28.879Z,88.60
2023-05-10T04:23:33.082Z,88.40
2023-05-10T04:26:35.081Z,89.10
2023-05-10T04:29:37.024Z,88.70
2023-05-10T04:32:38.963Z,88.30
2023-05-10T04:35:40.903Z,88.10
2023-05-10T04:38:42.872Z,88.80
2023-05-10T04:41:47.205Z,88.40
2023-05-10T04:44:51.681Z,88.50
2023-05-10T04:47:53.670Z,88.50
2023-05-10T04:50:55.775Z,88.40
2023-05-10T04:54:05.923Z,88.40
2023-05-10T04:57:08.823Z,88.50
2023-05-10T05:00:11.953Z,88.40
2023-05-10T05:03:13.983Z,87.80
2023-05-10T05:06:15.994Z,87.90
2023-05-10T05:09:18.039Z,88.20
2023-05-10T05:12:20.027Z,87.40
2023-05-10T05:15:22.483Z,88.10
2023-05-10T05:18:24.747Z,88.00
2023-05-10T05:21:26.816Z,88.00
2023-05-10T05:24:28.889Z,87.70
2023-05-10T05:27:31.084Z,87.10
2023-05-10T05:30:33.044Z,87.80
2023-05-10T05:33:35.341Z,87.60
2023-05-10T05:36:37.907Z,88.00
2023-05-10T05:39:39.971Z,88.00
2023-05-10T05:42:41.930Z,87.60
2023-05-10T05:45:43.936Z,87.60
2023-05-10T05:48:45.983Z,87.00
2023-05-10T05:51:47.961Z,87.00
2023-05-10T05:54:50.010Z,86.60
2023-05-10T05:57:51.973Z,86.50
2023-05-10T06:00:54.046Z,86.00
2023-05-10T06:03:56.130Z,85.50
2023-05-10T06:06:58.200Z,86.10
2023-05-10T06:10:00.369Z,86.10
2023-05-10T06:13:02.532Z,85.50
2023-05-10T06:16:04.629Z,85.60
2023-05-10T06:19:09.122Z,85.20
2023-05-10T06:22:11.358Z,84.50
2023-05-10T06:25:13.402Z,84.30
2023-05-10T06:28:15.439Z,83.10
2023-05-10T06:31:17.478Z,81.50
2023-05-10T06:34:19.401Z,79.90
2023-05-10T06:37:22.120Z,80.60
2023-05-10T06:40:24.166Z,82.00
2023-05-10T06:43:26.427Z,80.20
2023-05-10T06:46:28.484Z,80.80
2023-05-10T06:49:30.579Z,79.40
2023-05-10T06:52:32.508Z,79.80
2023-05-10T06:55:34.637Z,79.10
2023-05-10T06:58:36.604Z,79.60
2023-05-10T07:01:38.965Z,78.80
2023-05-10T07:04:41.122Z,79.10
2023-05-10T07:07:43.095Z,79.50
2023-05-10T07:10:45.145Z,78.90
2023-05-10T07:13:47.088Z,79.10
2023-05-10T07:16:49.066Z,80.20
2023-05-10T07:19:53.419Z,79.90
2023-05-10T07:22:55.398Z,79.60
2023-05-10T07:25:59.953Z,78.40
2023-05-10T07:29:02.093Z,79.30
2023-05-10T07:32:04.126Z,79.40
2023-05-10T07:35:06.189Z,80.10
2023-05-10T07:38:08.440Z,77.90
2023-05-10T07:41:12.465Z,79.00
2023-05-10T07:44:14.437Z,79.00
2023-05-10T07:47:16.446Z,78.10
2023-05-10T07:50:18.453Z,77.80
2023-05-10T07:53:20.552Z,78.00
2023-05-10T07:56:25.544Z,77.00
2023-05-10T07:59:27.535Z,76.40
2023-05-10T08:02:29.601Z,77.40
2023-05-10T08:05:32.037Z,78.10
2023-05-10T08:08:37.338Z,77.00
2023-05-10T08:11:39.256Z,76.80
2023-05-10T08:14:43.930Z,77.30
2023-05-10T08:17:46.005Z,77.70
2023-05-10T08:20:50.303Z,78.00
2023-05-10T08:23:52.240Z,75.80
2023-05-10T08:26:56.500Z,76.80
2023-05-10T08:29:58.492Z,75.80
2023-05-10T08:33:00.493Z,74.70
2023-05-10T08:36:02.533Z,74.10
2023-05-10T08:39:05.075Z,74.80
2023-05-10T08:42:08.691Z,74.30
2023-05-10T08:45:14.689Z,73.60
2023-05-10T08:48:17.866Z,74.50
2023-05-10T08:51:23.129Z,73.00
2023-05-10T08:54:28.455Z,73.60
2023-05-10T08:57:30.795Z,71.20
2023-05-10T09:00:33.317Z,71.10
2023-05-10T09:03:36.553Z,69.90
2023-05-10T09:06:39.518Z,70.10
2023-05-10T09:09:41.937Z,69.90
2023-05-10T09:12:45.809Z,69.20
2023-05-10T09:15:49.358Z,71.00
2023-05-10T09:18:51.445Z,70.50
2023-05-10T09:21:53.738Z,68.20
2023-05-10T09:25:16.821Z,66.10
2023-05-10T09:28:19.025Z,68.30
2023-05-10T09:31:21.475Z,66.60
2023-05-10T09:34:32.121Z,69.30
2023-05-10T09:37:34.296Z,68.80
2023-05-10T09:40:36.501Z,68.60
2023-05-10T09:43:41.734Z,71.40
2023-05-10T09:46:43.929Z,73.00
2023-05-10T09:49:51.227Z,73.20
2023-05-10T09:53:00.433Z,73.50
2023-05-10T09:56:02.737Z,74.20
2023-05-10T09:59:05.583Z,72.00
2023-05-10T10:02:08.238Z,70.50
2023-05-10T10:05:13.388Z,70.10
2023-05-10T10:08:16.711Z,68.90
2023-05-10T10:11:19.032Z,67.10
2023-05-10T10:14:22.801Z,67.00
2023-05-10T10:17:28.563Z,67.30
2023-05-10T10:20:30.938Z,65.50
2023-05-10T10:23:33.186Z,65.70
2023-05-10T10:26:37.238Z,65.90
2023-05-10T10:30:00.376Z,66.40
2023-05-10T10:33:40.046Z,67.10
2023-05-10T10:36:47.862Z,69.70
2023-05-10T10:39:50.658Z,67.10
2023-05-10T10:42:53.198Z,67.10
2023-05-10T10:46:17.809Z,66.80
2023-05-10T10:49:21.353Z,67.50
2023-05-10T11:04:04.381Z,62.20
2023-05-10T11:07:27.357Z,61.40
2023-05-10T11:10:29.408Z,58.50
2023-05-10T11:13:44.918Z,58.80
2023-05-10T11:16:46.966Z,60.40
2023-05-10T11:20:09.104Z,60.20
2023-05-10T11:23:15.599Z,60.30
2023-05-10T11:26:17.998Z,61.90
2023-05-10T11:29:20.437Z,63.10
2023-05-10T11:32:23.145Z,63.70
2023-05-10T11:35:25.300Z,63.80
2023-05-10T11:38:27.365Z,65.80
2023-05-10T11:41:30.112Z,64.60
2023-05-10T11:44:35.469Z,60.00
2023-05-10T11:47:37.659Z,55.40
2023-05-10T11:50:39.841Z,54.90
2023-05-10T11:53:41.939Z,56.30
2023-05-10T11:56:44.012Z,53.90
2023-05-10T11:59:45.893Z,52.90
2023-05-10T12:02:48.984Z,53.90
2023-05-10T12:05:51.342Z,53.30
2023-05-10T12:08:53.610Z,54.20
2023-05-10T12:11:57.220Z,53.30
2023-05-10T12:14:59.219Z,53.90
2023-05-10T12:18:01.159Z,54.80
2023-05-10T12:21:05.253Z,57.00
2023-05-10T12:24:08.390Z,56.60
2023-05-10T12:27:10.387Z,57.20
2023-05-10T12:30:13.117Z,55.90
2023-05-10T12:33:15.708Z,51.30
2023-05-10T12:36:24.536Z,50.70
2023-05-10T12:39:26.491Z,51.60
2023-05-10T12:42:28.553Z,51.00
2023-05-10T12:45:30.575Z,52.30
2023-05-10T12:48:32.569Z,53.50
2023-05-10T12:51:34.418Z,51.60
2023-05-10T12:54:36.464Z,53.40
2023-05-10T12:57:38.455Z,52.60
2023-05-10T13:00:41.731Z,51.60
2023-05-10T13:03:43.762Z,51.80
2023-05-10T13:06:45.721Z,52.80
2023-05-10T13:09:47.674Z,50.30
2023-05-10T13:12:49.554Z,53.10
2023-05-10T13:15:51.639Z,52.30
2023-05-10T13:18:53.759Z,53.10
2023-05-10T13:21:55.815Z,54.80
2023-05-10T13:24:59.017Z,50.80
2023-05-10T13:28:01.436Z,52.40
2023-05-10T13:31:03.617Z,53.90
2023-05-10T13:34:06.935Z,51.20
2023-05-10T13:37:08.942Z,51.90
2023-05-10T13:40:11.055Z,50.40
2023-05-10T13:43:13.076Z,52.50
2023-05-10T13:46:14.931Z,51.60
2023-05-10T13:49:16.967Z,50.10
2023-05-10T13:52:18.970Z,51.30
2023-05-10T13:55:21.011Z,48.70
2023-05-10T13:58:23.132Z,48.00
2023-05-10T14:01:26.774Z,46.30
2023-05-10T14:04:28.954Z,48.90
2023-05-10T14:07:31.002Z,49.30
2023-05-10T14:10:32.974Z,48.30
2023-05-10T14:13:35.095Z,47.80
2023-05-10T14:16:37.038Z,47.00
2023-05-10T14:19:39.193Z,46.90
2023-05-10T14:22:41.154Z,46.00
2023-05-10T14:25:43.069Z,48.50
2023-05-10T14:28:45.048Z,45.90
2023-05-10T14:31:47.039Z,45.60
2023-05-10T14:34:49.058Z,47.50
2023-05-10T14:37:51.186Z,47.20
2023-05-10T14:40:53.207Z,46.50
2023-05-10T14:43:55.166Z,50.20
2023-05-10T14:46:57.041Z,47.10
2023-05-10T14:49:59.004Z,47.80
2023-05-10T14:53:01.062Z,48.50
2023-05-10T14:56:03.045Z,48.40
2023-05-10T14:59:05.052Z,46.40
2023-05-10T15:02:07.477Z,47.70
2023-05-10T15:05:10.154Z,47.90
2023-05-10T15:08:12.494Z,48.40
2023-05-10T15:11:14.552Z,49.10
2023-05-10T15:14:16.458Z,50.70
2023-05-10T15:17:18.466Z,50.00
2023-05-10T15:20:20.422Z,52.30
2023-05-10T15:23:22.675Z,51.50
2023-05-10T15:26:24.650Z,51.80
2023-05-10T15:29:26.993Z,51.20
2023-05-10T15:32:29.306Z,50.60
2023-05-10T15:35:31.323Z,51.60
2023-05-10T15:38:33.233Z,52.20
2023-05-10T15:41:35.208Z,51.50
2023-05-10T15:44:37.167Z,52.40
2023-05-10T15:47:39.231Z,50.90
2023-05-10T15:50:41.575Z,49.40
2023-05-10T15:53:56.493Z,48.20
2023-05-10T15:57:02.635Z,48.20
2023-05-10T16:00:04.755Z,47.30
2023-05-10T16:03:16.487Z,47.60
2023-05-10T16:06:18.488Z,48.00
2023-05-10T16:09:20.425Z,50.90
2023-05-10T16:12:22.329Z,49.00
2023-05-10T16:15:24.331Z,48.00
2023-05-10T16:18:26.593Z,49.10
2023-05-10T16:21:29.935Z,49.90
2023-05-10T16:24:32.437Z,51.40
2023-05-10T16:27:34.393Z,50.30
2023-05-10T16:30:36.396Z,49.60
2023-05-10T16:33:38.349Z,51.30
2023-05-10T16:36:40.449Z,52.70
2023-05-10T16:39:42.962Z,52.30
2023-05-10T16:42:44.893Z,52.40
2023-05-10T16:45:47.207Z,53.20
2023-05-10T16:48:49.278Z,53.30
2023-05-10T16:51:51.294Z,52.50
2023-05-10T16:54:54.801Z,52.80
2023-05-10T16:57:59.616Z,54.50
2023-05-10T17:01:01.610Z,54.40
2023-05-10T17:04:03.669Z,52.90
2023-05-10T17:07:05.805Z,54.50
2023-05-10T17:10:07.929Z,54.20
2023-05-10T17:13:10.682Z,54.80
2023-05-10T17:16:12.948Z,56.20
2023-05-10T17:19:15.359Z,57.00
2023-05-10T17:22:17.467Z,56.60
2023-05-10T17:28:26.888Z,57.30
2023-05-10T17:31:29.193Z,58.20
2023-05-10T17:34:31.253Z,57.70
2023-05-10T17:37:33.218Z,56.30
2023-05-10T17:40:35.213Z,56.10
2023-05-10T17:43:37.260Z,56.60
2023-05-10T17:46:39.240Z,56.00
2023-05-10T17:49:41.226Z,55.80
2023-05-10T17:52:43.645Z,55.60
2023-05-10T17:55:45.656Z,57.00
2023-05-10T17:58:47.635Z,56.80
2023-05-10T18:01:49.695Z,57.10
2023-05-10T18:04:51.864Z,57.40
2023-05-10T18:07:53.918Z,57.30
2023-05-10T18:10:56.173Z,57.60
2023-05-10T18:13:58.489Z,58.00
2023-05-10T18:17:00.586Z,58.60
2023-05-10T18:20:02.638Z,59.20
2023-05-10T18:23:04.598Z,59.40
2023-05-10T18:26:08.276Z,59.80
2023-05-10T18:29:10.735Z,60.00
2023-05-10T18:32:12.941Z,60.70
2023-05-10T18:35:15.218Z,61.30
2023-05-10T18:38:17.573Z,62.00
2023-05-10T18:41:19.924Z,62.40
2023-05-10T18:44:22.258Z,63.00
2023-05-10T18:47:24.515Z,62.90
2023-05-10T18:50:26.513Z,63.00
2023-05-10T18:53:28.456Z,63.70
2023-05-10T18:56:30.478Z,64.20
2023-05-10T18:59:32.475Z,64.70
2023-05-10T19:02:34.557Z,65.20
2023-05-10T19:05:36.847Z,65.30
2023-05-10T19:08:38.880Z,65.50
2023-05-10T19:11:41.434Z,65.60
2023-05-10T19:14:43.797Z,65.90
2023-05-10T19:17:46.256Z,66.00
2023-05-10T19:20:48.326Z,65.50
2023-05-10T19:23:50.444Z,66.10
2023-05-10T19:26:52.470Z,65.40
2023-05-10T19:29:55.432Z,65.30
2023-05-10T19:32:57.837Z,65.70
2023-05-10T19:35:59.884Z,65.60
2023-05-10T19:39:01.905Z,65.70
2023-05-10T19:42:04.337Z,65.60
2023-05-10T19:45:06.656Z,66.30
2023-05-10T19:48:08.765Z,66.00
2023-05-10T19:51:11.901Z,66.60
2023-05-10T19:54:13.896Z,66.60
2023-05-10T19:57:15.944Z,66.40
2023-05-10T20:00:18.052Z,67.20
2023-05-10T20:03:20.182Z,67.20
2023-05-10T20:06:22.843Z,67.30
2023-05-10T20:09:30.786Z,68.00
2023-05-10T20:12:32.746Z,68.20
2023-05-10T20:15:34.805Z,68.10
2023-05-10T20:18:36.902Z,68.70
2023-05-10T20:21:39.137Z,68.20
2023-05-10T20:24:41.880Z,68.70
2023-05-10T20:27:44.216Z,68.70
2023-05-10T20:30:46.142Z,69.10
2023-05-10T20:33:48.209Z,69.50
2023-05-10T20:36:50.960Z,69.80
2023-05-10T20:39:53.028Z,70.20
2023-05-10T20:43:01.812Z,70.00
2023-05-10T20:46:04.080Z,69.60
2023-05-10T20:49:06.056Z,69.60
2023-05-10T20:52:08.398Z,70.50
2023-05-10T20:55:10.591Z,70.30
2023-05-10T20:58:13.267Z,71.20
2023-05-10T21:01:15.718Z,71.10
2023-05-10T21:04:17.891Z,71.20
2023-05-10T21:07:21.146Z,71.00
2023-05-10T21:10:23.627Z,71.50
2023-05-10T21:13:25.961Z,71.70
2023-05-10T21:16:28.632Z,71.80
2023-05-10T21:19:34.893Z,72.00
2023-05-10T21:22:37.491Z,72.30
2023-05-10T21:25:39.820Z,72.80
2023-05-10T21:28:41.925Z,73.30
2023-05-10T21:31:44.070Z,73.70
2023-05-10T21:34:46.295Z,73.70
2023-05-10T21:37:48.281Z,73.70
2023-05-10T21:40:51.225Z,73.60
2023-05-10T21:43:54.873Z,73.80
2023-05-10T21:47:00.850Z,73.60
2023-05-10T21:50:03.139Z,74.00
2023-05-10T21:53:05.374Z,73.70
2023-05-10T21:56:10.201Z,74.20
2023-05-10T21:59:13.641Z,74.10
2023-05-10T22:02:15.720Z,74.20
2023-05-10T22:05:17.981Z,74.30
2023-05-10T22:08:20.720Z,74.30
2023-05-10T22:11:31.950Z,74.10
2023-05-10T22:14:35.467Z,74.50
2023-05-10T22:17:38.980Z,74.10
2023-05-10T22:20:48.056Z,74.20
2023-05-10T22:23:50.934Z,74.40
2023-05-10T22:26:56.647Z,74.20
2023-05-10T22:30:00.122Z,74.20
2023-05-10T22:33:02.860Z,74.60
2023-05-10T22:36:07.874Z,74.40
2023-05-10T22:39:10.228Z,75.00
2023-05-10T22:42:12.787Z,74.70
2023-05-10T22:45:15.537Z,74.70
2023-05-10T22:48:17.542Z,74.90
2023-05-10T22:51:19.607Z,74.80
2023-05-10T22:54:24.820Z,74.90
2023-05-10T22:57:31.225Z,74.90
2023-05-10T23:00:52.410Z,75.00
2023-05-10T23:03:56.910Z,74.60
2023-05-10T23:06:59.267Z,75.30
2023-05-10T23:10:04.498Z,74.80
2023-05-10T23:13:07.439Z,75.20
2023-05-10T23:16:09.984Z,74.60
2023-05-10T23:19:14.605Z,74.80
2023-05-10T23:22:16.800Z,74.60
2023-05-10T23:25:18.991Z,74.90
2023-05-10T23:28:21.208Z,74.90
2023-05-10T23:31:23.511Z,74.90
2023-05-10T23:34:25.607Z,75.10
2023-05-10T23:37:28.058Z,75.10
2023-05-10T23:40:30.074Z,75.30
2023-05-10T23:43:32.289Z,75.60
2023-05-10T23:46:34.594Z,75.50
2023-05-10T23:49:36.613Z,75.80
2023-05-10T23:52:38.978Z,75.00
2023-05-10T23:55:41.564Z,75.40
2023-05-10T23:58:43.806Z,75.40
